sensor_id;sensor_type;location;lat;lon;timestamp;P1;durP1;ratioP1;P2;durP2;ratioP2
67768;SDS011;54569;52.018;5.584;2022-12-18T00:01:06;38.58;;;18.70;;
67768;SDS011;54569;52.018;5.584;2022-12-18T00:03:44;48.60;;;20.52;;
67768;SDS011;54569;52.018;5.584;2022-12-18T00:06:09;50.63;;;22.23;;
67768;SDS011;54569;52.018;5.584;2022-12-18T00:08:36;47.17;;;22.30;;
67768;SDS011;54569;52.018;5.584;2022-12-18T00:11:10;49.38;;;21.88;;
67768;SDS011;54569;52.018;5.584;2022-12-18T00:13:38;47.67;;;21.10;;
67768;SDS011;54569;52.018;5.584;2022-12-18T00:16:05;52.53;;;22.55;;
67768;SDS011;54569;52.018;5.584;2022-12-18T00:18:33;48.58;;;21.63;;
67768;SDS011;54569;52.018;5.584;2022-12-18T00:20:59;47.78;;;22.98;;
67768;SDS011;54569;52.018;5.584;2022-12-18T00:23:26;55.25;;;21.98;;
67768;SDS011;54569;52.018;5.584;2022-12-18T00:25:52;53.00;;;23.02;;
67768;SDS011;54569;52.018;5.584;2022-12-18T00:28:18;54.05;;;24.88;;
67768;SDS011;54569;52.018;5.584;2022-12-18T00:30:45;52.83;;;23.15;;
67768;SDS011;54569;52.018;5.584;2022-12-18T00:33:11;55.25;;;22.52;;
67768;SDS011;54569;52.018;5.584;2022-12-18T00:35:36;51.60;;;22.55;;
67768;SDS011;54569;52.018;5.584;2022-12-18T00:38:02;50.58;;;22.45;;
67768;SDS011;54569;52.018;5.584;2022-12-18T00:42:56;46.35;;;21.40;;
67768;SDS011;54569;52.018;5.584;2022-12-18T00:45:26;51.30;;;21.80;;
67768;SDS011;54569;52.018;5.584;2022-12-18T00:47:53;54.00;;;22.63;;
67768;SDS011;54569;52.018;5.584;2022-12-18T00:50:20;50.88;;;22.00;;
67768;SDS011;54569;52.018;5.584;2022-12-18T00:52:47;47.95;;;20.73;;
67768;SDS011;54569;52.018;5.584;2022-12-18T00:55:13;43.92;;;20.92;;
67768;SDS011;54569;52.018;5.584;2022-12-18T00:57:39;51.00;;;20.25;;
67768;SDS011;54569;52.018;5.584;2022-12-18T01:00:06;50.20;;;22.40;;
67768;SDS011;54569;52.018;5.584;2022-12-18T01:02:34;52.40;;;21.92;;
67768;SDS011;54569;52.018;5.584;2022-12-18T01:05:01;47.30;;;20.17;;
67768;SDS011;54569;52.018;5.584;2022-12-18T01:07:26;47.67;;;21.77;;
67768;SDS011;54569;52.018;5.584;2022-12-18T01:09:53;42.67;;;20.70;;
67768;SDS011;54569;52.018;5.584;2022-12-18T01:12:19;49.15;;;20.48;;
67768;SDS011;54569;52.018;5.584;2022-12-18T01:14:44;47.45;;;20.80;;
67768;SDS011;54569;52.018;5.584;2022-12-18T01:17:10;44.58;;;21.48;;
67768;SDS011;54569;52.018;5.584;2022-12-18T01:19:36;44.75;;;19.65;;
67768;SDS011;54569;52.018;5.584;2022-12-18T01:22:02;42.63;;;21.38;;
67768;SDS011;54569;52.018;5.584;2022-12-18T01:24:28;42.25;;;18.50;;
67768;SDS011;54569;52.018;5.584;2022-12-18T01:26:54;46.05;;;20.05;;
67768;SDS011;54569;52.018;5.584;2022-12-18T01:29:19;41.00;;;19.63;;
67768;SDS011;54569;52.018;5.584;2022-12-18T01:31:45;42.90;;;20.48;;
67768;SDS011;54569;52.018;5.584;2022-12-18T01:34:11;46.45;;;20.85;;
67768;SDS011;54569;52.018;5.584;2022-12-18T01:36:37;38.38;;;18.95;;
67768;SDS011;54569;52.018;5.584;2022-12-18T01:39:08;41.63;;;20.17;;
67768;SDS011;54569;52.018;5.584;2022-12-18T01:41:36;47.55;;;22.08;;
67768;SDS011;54569;52.018;5.584;2022-12-18T01:50:22;47.60;;;19.58;;
67768;SDS011;54569;52.018;5.584;2022-12-18T01:52:53;42.22;;;19.65;;
67768;SDS011;54569;52.018;5.584;2022-12-18T01:55:46;41.75;;;18.48;;
67768;SDS011;54569;52.018;5.584;2022-12-18T01:58:15;46.60;;;20.67;;
67768;SDS011;54569;52.018;5.584;2022-12-18T02:00:42;40.08;;;19.15;;
67768;SDS011;54569;52.018;5.584;2022-12-18T02:03:07;42.28;;;19.35;;
67768;SDS011;54569;52.018;5.584;2022-12-18T02:05:36;42.08;;;20.42;;
67768;SDS011;54569;52.018;5.584;2022-12-18T02:08:12;40.15;;;19.10;;
67768;SDS011;54569;52.018;5.584;2022-12-18T02:10:44;38.67;;;19.60;;
67768;SDS011;54569;52.018;5.584;2022-12-18T02:16:23;39.28;;;19.08;;
67768;SDS011;54569;52.018;5.584;2022-12-18T02:18:56;37.88;;;19.35;;
67768;SDS011;54569;52.018;5.584;2022-12-18T02:21:46;42.67;;;19.33;;
67768;SDS011;54569;52.018;5.584;2022-12-18T02:27:37;39.25;;;17.88;;
67768;SDS011;54569;52.018;5.584;2022-12-18T02:30:06;42.67;;;19.45;;
67768;SDS011;54569;52.018;5.584;2022-12-18T02:32:39;39.03;;;18.40;;
67768;SDS011;54569;52.018;5.584;2022-12-18T02:35:09;41.97;;;18.98;;
67768;SDS011;54569;52.018;5.584;2022-12-18T02:37:40;38.55;;;18.05;;
67768;SDS011;54569;52.018;5.584;2022-12-18T02:40:09;37.55;;;18.88;;
67768;SDS011;54569;52.018;5.584;2022-12-18T02:42:37;41.22;;;19.33;;
67768;SDS011;54569;52.018;5.584;2022-12-18T02:45:05;41.35;;;17.52;;
67768;SDS011;54569;52.018;5.584;2022-12-18T02:47:33;34.60;;;17.67;;
67768;SDS011;54569;52.018;5.584;2022-12-18T02:50:16;35.20;;;16.90;;
67768;SDS011;54569;52.018;5.584;2022-12-18T02:55:18;36.10;;;18.20;;
67768;SDS011;54569;52.018;5.584;2022-12-18T02:58:05;36.17;;;17.88;;
67768;SDS011;54569;52.018;5.584;2022-12-18T03:00:43;37.15;;;18.73;;
67768;SDS011;54569;52.018;5.584;2022-12-18T03:03:24;37.70;;;17.00;;
67768;SDS011;54569;52.018;5.584;2022-12-18T03:06:02;33.88;;;16.05;;
67768;SDS011;54569;52.018;5.584;2022-12-18T03:08:49;35.72;;;17.23;;
67768;SDS011;54569;52.018;5.584;2022-12-18T03:11:19;33.47;;;14.93;;
67768;SDS011;54569;52.018;5.584;2022-12-18T03:14:06;30.52;;;15.90;;
67768;SDS011;54569;52.018;5.584;2022-12-18T03:16:33;29.85;;;15.82;;
67768;SDS011;54569;52.018;5.584;2022-12-18T03:19:01;33.88;;;16.13;;
67768;SDS011;54569;52.018;5.584;2022-12-18T03:21:45;34.65;;;17.00;;
67768;SDS011;54569;52.018;5.584;2022-12-18T03:24:16;31.58;;;15.68;;
67768;SDS011;54569;52.018;5.584;2022-12-18T03:26:46;34.20;;;14.82;;
67768;SDS011;54569;52.018;5.584;2022-12-18T03:29:18;28.08;;;15.48;;
67768;SDS011;54569;52.018;5.584;2022-12-18T03:31:58;31.05;;;16.25;;
67768;SDS011;54569;52.018;5.584;2022-12-18T03:34:32;32.83;;;15.82;;
67768;SDS011;54569;52.018;5.584;2022-12-18T03:37:04;31.00;;;15.23;;
67768;SDS011;54569;52.018;5.584;2022-12-18T03:39:32;34.10;;;15.50;;
67768;SDS011;54569;52.018;5.584;2022-12-18T03:44:52;30.73;;;15.68;;
67768;SDS011;54569;52.018;5.584;2022-12-18T03:47:39;30.77;;;14.75;;
67768;SDS011;54569;52.018;5.584;2022-12-18T03:50:45;29.90;;;14.85;;
67768;SDS011;54569;52.018;5.584;2022-12-18T03:53:25;28.30;;;15.38;;
67768;SDS011;54569;52.018;5.584;2022-12-18T03:55:51;30.35;;;15.68;;
67768;SDS011;54569;52.018;5.584;2022-12-18T03:58:20;30.30;;;14.38;;
67768;SDS011;54569;52.018;5.584;2022-12-18T04:00:56;34.22;;;14.85;;
67768;SDS011;54569;52.018;5.584;2022-12-18T04:03:26;25.13;;;14.85;;
67768;SDS011;54569;52.018;5.584;2022-12-18T04:05:55;26.33;;;14.18;;
67768;SDS011;54569;52.018;5.584;2022-12-18T04:08:26;25.20;;;13.90;;
67768;SDS011;54569;52.018;5.584;2022-12-18T04:11:01;29.88;;;15.23;;
67768;SDS011;54569;52.018;5.584;2022-12-18T04:13:28;30.63;;;13.90;;
67768;SDS011;54569;52.018;5.584;2022-12-18T04:15:58;24.75;;;13.77;;
67768;SDS011;54569;52.018;5.584;2022-12-18T04:18:24;27.40;;;15.60;;
67768;SDS011;54569;52.018;5.584;2022-12-18T04:20:50;22.60;;;12.48;;
67768;SDS011;54569;52.018;5.584;2022-12-18T04:23:16;26.48;;;14.23;;
67768;SDS011;54569;52.018;5.584;2022-12-18T04:25:42;25.23;;;13.57;;
67768;SDS011;54569;52.018;5.584;2022-12-18T04:28:13;26.40;;;14.25;;
67768;SDS011;54569;52.018;5.584;2022-12-18T04:30:39;24.88;;;13.55;;
67768;SDS011;54569;52.018;5.584;2022-12-18T04:33:09;22.02;;;12.07;;
67768;SDS011;54569;52.018;5.584;2022-12-18T04:35:36;25.75;;;13.43;;
67768;SDS011;54569;52.018;5.584;2022-12-18T04:38:05;25.80;;;13.45;;
67768;SDS011;54569;52.018;5.584;2022-12-18T04:40:31;23.30;;;13.35;;
67768;SDS011;54569;52.018;5.584;2022-12-18T04:43:03;24.10;;;12.52;;
67768;SDS011;54569;52.018;5.584;2022-12-18T04:45:30;24.25;;;11.73;;
67768;SDS011;54569;52.018;5.584;2022-12-18T04:47:59;24.13;;;12.70;;
67768;SDS011;54569;52.018;5.584;2022-12-18T04:50:26;20.27;;;11.02;;
67768;SDS011;54569;52.018;5.584;2022-12-18T04:52:52;22.55;;;12.45;;
67768;SDS011;54569;52.018;5.584;2022-12-18T04:55:18;21.00;;;10.93;;
67768;SDS011;54569;52.018;5.584;2022-12-18T04:57:44;22.05;;;12.38;;
67768;SDS011;54569;52.018;5.584;2022-12-18T05:00:10;19.70;;;11.55;;
67768;SDS011;54569;52.018;5.584;2022-12-18T05:02:36;21.63;;;12.50;;
67768;SDS011;54569;52.018;5.584;2022-12-18T05:05:02;23.92;;;12.32;;
67768;SDS011;54569;52.018;5.584;2022-12-18T05:07:28;19.25;;;11.75;;
67768;SDS011;54569;52.018;5.584;2022-12-18T05:09:53;23.77;;;12.50;;
67768;SDS011;54569;52.018;5.584;2022-12-18T05:12:19;20.35;;;11.57;;
67768;SDS011;54569;52.018;5.584;2022-12-18T05:14:49;23.95;;;11.95;;
67768;SDS011;54569;52.018;5.584;2022-12-18T05:17:14;20.67;;;11.40;;
67768;SDS011;54569;52.018;5.584;2022-12-18T05:19:40;22.05;;;11.65;;
67768;SDS011;54569;52.018;5.584;2022-12-18T05:22:06;22.15;;;11.77;;
67768;SDS011;54569;52.018;5.584;2022-12-18T05:24:32;17.70;;;10.63;;
67768;SDS011;54569;52.018;5.584;2022-12-18T05:26:57;19.38;;;12.43;;
67768;SDS011;54569;52.018;5.584;2022-12-18T05:29:23;18.20;;;11.40;;
67768;SDS011;54569;52.018;5.584;2022-12-18T05:31:49;21.35;;;11.32;;
67768;SDS011;54569;52.018;5.584;2022-12-18T05:34:14;21.90;;;12.52;;
67768;SDS011;54569;52.018;5.584;2022-12-18T05:36:40;22.08;;;11.00;;
67768;SDS011;54569;52.018;5.584;2022-12-18T05:39:06;22.70;;;12.43;;
67768;SDS011;54569;52.018;5.584;2022-12-18T05:41:32;21.85;;;11.60;;
67768;SDS011;54569;52.018;5.584;2022-12-18T05:43:57;20.98;;;11.50;;
67768;SDS011;54569;52.018;5.584;2022-12-18T05:46:23;23.35;;;12.05;;
67768;SDS011;54569;52.018;5.584;2022-12-18T05:48:49;17.92;;;11.25;;
67768;SDS011;54569;52.018;5.584;2022-12-18T05:51:16;21.52;;;12.20;;
67768;SDS011;54569;52.018;5.584;2022-12-18T05:53:44;16.48;;;10.57;;
67768;SDS011;54569;52.018;5.584;2022-12-18T05:56:11;19.45;;;11.68;;
67768;SDS011;54569;52.018;5.584;2022-12-18T05:58:39;16.00;;;9.65;;
67768;SDS011;54569;52.018;5.584;2022-12-18T06:01:06;20.00;;;10.35;;
67768;SDS011;54569;52.018;5.584;2022-12-18T06:03:37;18.27;;;11.20;;
67768;SDS011;54569;52.018;5.584;2022-12-18T06:06:03;17.50;;;10.45;;
67768;SDS011;54569;52.018;5.584;2022-12-18T06:08:29;14.75;;;9.13;;
67768;SDS011;54569;52.018;5.584;2022-12-18T06:10:55;20.27;;;11.07;;
67768;SDS011;54569;52.018;5.584;2022-12-18T06:13:20;16.67;;;11.40;;
67768;SDS011;54569;52.018;5.584;2022-12-18T06:15:46;19.45;;;10.63;;
67768;SDS011;54569;52.018;5.584;2022-12-18T06:18:12;19.45;;;10.27;;
67768;SDS011;54569;52.018;5.584;2022-12-18T06:20:37;21.45;;;11.10;;
67768;SDS011;54569;52.018;5.584;2022-12-18T06:23:05;19.85;;;10.25;;
67768;SDS011;54569;52.018;5.584;2022-12-18T06:25:31;20.92;;;11.93;;
67768;SDS011;54569;52.018;5.584;2022-12-18T06:27:58;15.48;;;9.00;;
67768;SDS011;54569;52.018;5.584;2022-12-18T06:30:23;20.02;;;10.68;;
67768;SDS011;54569;52.018;5.584;2022-12-18T06:32:49;17.25;;;10.30;;
67768;SDS011;54569;52.018;5.584;2022-12-18T06:35:15;18.60;;;10.60;;
67768;SDS011;54569;52.018;5.584;2022-12-18T06:37:41;18.92;;;10.25;;
67768;SDS011;54569;52.018;5.584;2022-12-18T06:40:06;18.10;;;10.25;;
67768;SDS011;54569;52.018;5.584;2022-12-18T06:42:33;18.77;;;10.88;;
67768;SDS011;54569;52.018;5.584;2022-12-18T06:44:58;13.55;;;9.57;;
67768;SDS011;54569;52.018;5.584;2022-12-18T06:47:24;16.75;;;9.80;;
67768;SDS011;54569;52.018;5.584;2022-12-18T06:49:49;14.98;;;9.80;;
67768;SDS011;54569;52.018;5.584;2022-12-18T06:52:16;15.85;;;9.75;;
67768;SDS011;54569;52.018;5.584;2022-12-18T06:54:42;16.35;;;10.07;;
67768;SDS011;54569;52.018;5.584;2022-12-18T06:57:08;16.52;;;9.68;;
67768;SDS011;54569;52.018;5.584;2022-12-18T06:59:33;16.73;;;9.85;;
67768;SDS011;54569;52.018;5.584;2022-12-18T07:01:59;15.57;;;9.77;;
67768;SDS011;54569;52.018;5.584;2022-12-18T07:04:31;15.60;;;9.10;;
67768;SDS011;54569;52.018;5.584;2022-12-18T07:06:57;18.15;;;10.00;;
67768;SDS011;54569;52.018;5.584;2022-12-18T07:09:23;15.88;;;9.98;;
67768;SDS011;54569;52.018;5.584;2022-12-18T07:11:49;13.95;;;9.57;;
67768;SDS011;54569;52.018;5.584;2022-12-18T07:14:14;18.15;;;11.30;;
67768;SDS011;54569;52.018;5.584;2022-12-18T07:16:40;15.68;;;9.52;;
67768;SDS011;54569;52.018;5.584;2022-12-18T07:19:06;17.98;;;9.95;;
67768;SDS011;54569;52.018;5.584;2022-12-18T07:21:31;20.60;;;10.90;;
67768;SDS011;54569;52.018;5.584;2022-12-18T07:23:57;18.95;;;10.60;;
67768;SDS011;54569;52.018;5.584;2022-12-18T07:26:23;17.40;;;10.40;;
67768;SDS011;54569;52.018;5.584;2022-12-18T07:28:49;16.65;;;11.02;;
67768;SDS011;54569;52.018;5.584;2022-12-18T07:31:16;16.92;;;12.35;;
67768;SDS011;54569;52.018;5.584;2022-12-18T07:33:43;18.58;;;11.23;;
67768;SDS011;54569;52.018;5.584;2022-12-18T07:36:09;16.45;;;10.73;;
67768;SDS011;54569;52.018;5.584;2022-12-18T07:38:36;19.55;;;10.90;;
67768;SDS011;54569;52.018;5.584;2022-12-18T07:41:11;14.73;;;9.60;;
67768;SDS011;54569;52.018;5.584;2022-12-18T07:43:38;18.73;;;11.20;;
67768;SDS011;54569;52.018;5.584;2022-12-18T07:46:06;19.58;;;10.52;;
67768;SDS011;54569;52.018;5.584;2022-12-18T07:48:32;14.80;;;10.23;;
67768;SDS011;54569;52.018;5.584;2022-12-18T07:51:07;18.05;;;9.75;;
67768;SDS011;54569;52.018;5.584;2022-12-18T07:53:33;20.15;;;11.13;;
67768;SDS011;54569;52.018;5.584;2022-12-18T07:56:00;15.48;;;10.35;;
67768;SDS011;54569;52.018;5.584;2022-12-18T07:58:31;17.20;;;10.68;;
67768;SDS011;54569;52.018;5.584;2022-12-18T08:01:10;16.75;;;10.30;;
67768;SDS011;54569;52.018;5.584;2022-12-18T08:03:37;18.65;;;10.90;;
67768;SDS011;54569;52.018;5.584;2022-12-18T08:06:04;18.73;;;11.52;;
67768;SDS011;54569;52.018;5.584;2022-12-18T08:08:32;16.88;;;10.63;;
67768;SDS011;54569;52.018;5.584;2022-12-18T08:10:58;16.08;;;11.13;;
67768;SDS011;54569;52.018;5.584;2022-12-18T08:13:24;18.08;;;10.45;;
67768;SDS011;54569;52.018;5.584;2022-12-18T08:16:01;18.08;;;11.95;;
67768;SDS011;54569;52.018;5.584;2022-12-18T08:18:29;19.90;;;12.18;;
67768;SDS011;54569;52.018;5.584;2022-12-18T08:20:55;16.05;;;10.52;;
67768;SDS011;54569;52.018;5.584;2022-12-18T08:23:21;17.73;;;9.55;;
67768;SDS011;54569;52.018;5.584;2022-12-18T08:25:47;17.45;;;10.48;;
67768;SDS011;54569;52.018;5.584;2022-12-18T08:28:12;16.15;;;11.10;;
67768;SDS011;54569;52.018;5.584;2022-12-18T08:30:42;17.63;;;9.68;;
67768;SDS011;54569;52.018;5.584;2022-12-18T08:33:07;16.42;;;9.80;;
67768;SDS011;54569;52.018;5.584;2022-12-18T08:35:36;15.60;;;9.60;;
67768;SDS011;54569;52.018;5.584;2022-12-18T08:38:02;16.10;;;9.32;;
67768;SDS011;54569;52.018;5.584;2022-12-18T08:40:28;14.88;;;8.82;;
67768;SDS011;54569;52.018;5.584;2022-12-18T08:42:54;14.38;;;8.68;;
67768;SDS011;54569;52.018;5.584;2022-12-18T08:45:46;15.65;;;10.00;;
67768;SDS011;54569;52.018;5.584;2022-12-18T08:48:11;17.05;;;9.35;;
67768;SDS011;54569;52.018;5.584;2022-12-18T08:50:37;12.13;;;8.45;;
67768;SDS011;54569;52.018;5.584;2022-12-18T08:53:03;14.93;;;9.23;;
67768;SDS011;54569;52.018;5.584;2022-12-18T08:55:29;14.02;;;8.40;;
67768;SDS011;54569;52.018;5.584;2022-12-18T08:57:54;15.15;;;9.43;;
67768;SDS011;54569;52.018;5.584;2022-12-18T09:00:20;14.85;;;9.38;;
67768;SDS011;54569;52.018;5.584;2022-12-18T09:02:46;14.93;;;8.90;;
67768;SDS011;54569;52.018;5.584;2022-12-18T09:05:11;14.20;;;8.75;;
67768;SDS011;54569;52.018;5.584;2022-12-18T09:07:37;13.95;;;8.75;;
67768;SDS011;54569;52.018;5.584;2022-12-18T09:10:03;13.02;;;8.68;;
67768;SDS011;54569;52.018;5.584;2022-12-18T09:12:29;13.50;;;8.50;;
67768;SDS011;54569;52.018;5.584;2022-12-18T09:14:54;12.57;;;8.70;;
67768;SDS011;54569;52.018;5.584;2022-12-18T09:17:21;13.85;;;7.97;;
67768;SDS011;54569;52.018;5.584;2022-12-18T09:19:47;14.32;;;9.18;;
67768;SDS011;54569;52.018;5.584;2022-12-18T09:22:12;12.75;;;8.68;;
67768;SDS011;54569;52.018;5.584;2022-12-18T09:24:38;12.70;;;8.63;;
67768;SDS011;54569;52.018;5.584;2022-12-18T09:27:04;12.35;;;8.02;;
67768;SDS011;54569;52.018;5.584;2022-12-18T09:29:30;13.02;;;8.38;;
67768;SDS011;54569;52.018;5.584;2022-12-18T09:31:55;11.48;;;7.60;;
67768;SDS011;54569;52.018;5.584;2022-12-18T09:34:21;11.57;;;7.95;;
67768;SDS011;54569;52.018;5.584;2022-12-18T09:36:47;12.35;;;8.05;;
67768;SDS011;54569;52.018;5.584;2022-12-18T09:39:13;11.93;;;8.02;;
67768;SDS011;54569;52.018;5.584;2022-12-18T09:41:40;11.38;;;8.30;;
67768;SDS011;54569;52.018;5.584;2022-12-18T09:44:15;14.15;;;8.63;;
67768;SDS011;54569;52.018;5.584;2022-12-18T09:46:59;14.07;;;8.38;;
67768;SDS011;54569;52.018;5.584;2022-12-18T09:49:36;12.60;;;7.88;;
67768;SDS011;54569;52.018;5.584;2022-12-18T09:52:12;11.73;;;7.70;;
67768;SDS011;54569;52.018;5.584;2022-12-18T09:55:00;12.88;;;8.63;;
67768;SDS011;54569;52.018;5.584;2022-12-18T09:57:31;12.55;;;7.95;;
67768;SDS011;54569;52.018;5.584;2022-12-18T10:00:04;13.80;;;8.60;;
67768;SDS011;54569;52.018;5.584;2022-12-18T10:02:45;12.48;;;8.75;;
67768;SDS011;54569;52.018;5.584;2022-12-18T10:05:25;14.02;;;8.85;;
67768;SDS011;54569;52.018;5.584;2022-12-18T10:08:05;14.57;;;7.38;;
67768;SDS011;54569;52.018;5.584;2022-12-18T10:10:43;12.68;;;8.32;;
67768;SDS011;54569;52.018;5.584;2022-12-18T10:16:00;12.13;;;7.57;;
67768;SDS011;54569;52.018;5.584;2022-12-18T10:21:39;10.25;;;7.07;;
67768;SDS011;54569;52.018;5.584;2022-12-18T10:24:23;11.30;;;7.82;;
67768;SDS011;54569;52.018;5.584;2022-12-18T10:29:37;16.10;;;8.02;;
67768;SDS011;54569;52.018;5.584;2022-12-18T10:32:03;15.20;;;10.63;;
67768;SDS011;54569;52.018;5.584;2022-12-18T10:34:29;15.00;;;8.85;;
67768;SDS011;54569;52.018;5.584;2022-12-18T10:36:54;14.73;;;7.85;;
67768;SDS011;54569;52.018;5.584;2022-12-18T10:39:22;13.98;;;8.15;;
67768;SDS011;54569;52.018;5.584;2022-12-18T10:41:51;12.77;;;8.38;;
67768;SDS011;54569;52.018;5.584;2022-12-18T10:44:26;11.13;;;7.43;;
67768;SDS011;54569;52.018;5.584;2022-12-18T10:46:55;12.15;;;8.65;;
67768;SDS011;54569;52.018;5.584;2022-12-18T10:49:32;13.52;;;8.73;;
67768;SDS011;54569;52.018;5.584;2022-12-18T10:52:19;15.13;;;8.98;;
67768;SDS011;54569;52.018;5.584;2022-12-18T10:54:51;12.57;;;8.20;;
67768;SDS011;54569;52.018;5.584;2022-12-18T10:59:55;12.73;;;8.85;;
67768;SDS011;54569;52.018;5.584;2022-12-18T11:02:43;12.50;;;8.15;;
67768;SDS011;54569;52.018;5.584;2022-12-18T11:07:54;13.80;;;8.50;;
67768;SDS011;54569;52.018;5.584;2022-12-18T11:10:22;12.00;;;8.00;;
67768;SDS011;54569;52.018;5.584;2022-12-18T11:12:53;12.15;;;7.75;;
67768;SDS011;54569;52.018;5.584;2022-12-18T11:15:24;13.27;;;8.35;;
67768;SDS011;54569;52.018;5.584;2022-12-18T11:17:54;14.32;;;8.85;;
67768;SDS011;54569;52.018;5.584;2022-12-18T11:20:31;14.63;;;9.20;;
67768;SDS011;54569;52.018;5.584;2022-12-18T11:23:03;10.68;;;8.05;;
67768;SDS011;54569;52.018;5.584;2022-12-18T11:25:31;11.40;;;8.18;;
67768;SDS011;54569;52.018;5.584;2022-12-18T11:34:11;13.93;;;8.57;;
67768;SDS011;54569;52.018;5.584;2022-12-18T11:36:43;11.20;;;7.57;;
67768;SDS011;54569;52.018;5.584;2022-12-18T11:53:11;14.10;;;8.63;;
67768;SDS011;54569;52.018;5.584;2022-12-18T11:55:47;13.25;;;8.65;;
67768;SDS011;54569;52.018;5.584;2022-12-18T11:58:34;14.27;;;8.38;;
67768;SDS011;54569;52.018;5.584;2022-12-18T12:04:28;12.85;;;8.85;;
67768;SDS011;54569;52.018;5.584;2022-12-18T12:15:00;12.13;;;7.72;;
67768;SDS011;54569;52.018;5.584;2022-12-18T12:17:57;13.90;;;8.35;;
67768;SDS011;54569;52.018;5.584;2022-12-18T12:26:21;12.13;;;8.77;;
67768;SDS011;54569;52.018;5.584;2022-12-18T12:32:00;14.73;;;9.65;;
67768;SDS011;54569;52.018;5.584;2022-12-18T12:34:50;12.43;;;8.80;;
67768;SDS011;54569;52.018;5.584;2022-12-18T12:37:45;15.60;;;8.68;;
67768;SDS011;54569;52.018;5.584;2022-12-18T12:40:38;15.25;;;8.60;;
67768;SDS011;54569;52.018;5.584;2022-12-18T12:43:51;11.07;;;8.17;;
67768;SDS011;54569;52.018;5.584;2022-12-18T12:46:21;14.10;;;8.98;;
67768;SDS011;54569;52.018;5.584;2022-12-18T12:48:49;13.55;;;8.80;;
67768;SDS011;54569;52.018;5.584;2022-12-18T12:51:25;15.18;;;9.27;;
67768;SDS011;54569;52.018;5.584;2022-12-18T12:53:53;15.50;;;8.43;;
67768;SDS011;54569;52.018;5.584;2022-12-18T12:56:21;14.43;;;9.65;;
67768;SDS011;54569;52.018;5.584;2022-12-18T13:01:58;15.88;;;9.35;;
67768;SDS011;54569;52.018;5.584;2022-12-18T13:18:31;14.75;;;9.70;;
67768;SDS011;54569;52.018;5.584;2022-12-18T13:25:55;17.95;;;8.85;;
67768;SDS011;54569;52.018;5.584;2022-12-18T13:31:15;13.73;;;9.30;;
67768;SDS011;54569;52.018;5.584;2022-12-18T13:34:15;18.35;;;9.38;;
67768;SDS011;54569;52.018;5.584;2022-12-18T13:36:48;15.65;;;9.25;;
67768;SDS011;54569;52.018;5.584;2022-12-18T13:41:47;31.23;;;23.50;;
67768;SDS011;54569;52.018;5.584;2022-12-18T13:44:56;20.65;;;16.25;;
67768;SDS011;54569;52.018;5.584;2022-12-18T13:49:58;33.15;;;29.60;;
67768;SDS011;54569;52.018;5.584;2022-12-18T13:52:33;23.98;;;17.88;;
67768;SDS011;54569;52.018;5.584;2022-12-18T13:55:04;18.88;;;14.75;;
67768;SDS011;54569;52.018;5.584;2022-12-18T13:57:33;17.02;;;10.85;;
67768;SDS011;54569;52.018;5.584;2022-12-18T14:02:47;17.87;;;12.53;;
67768;SDS011;54569;52.018;5.584;2022-12-18T14:05:21;17.55;;;10.38;;
67768;SDS011;54569;52.018;5.584;2022-12-18T14:07:53;14.60;;;10.82;;
67768;SDS011;54569;52.018;5.584;2022-12-18T14:10:20;19.25;;;13.73;;
67768;SDS011;54569;52.018;5.584;2022-12-18T14:12:48;22.92;;;20.42;;
67768;SDS011;54569;52.018;5.584;2022-12-18T14:15:27;18.95;;;11.90;;
67768;SDS011;54569;52.018;5.584;2022-12-18T14:20:27;18.25;;;10.85;;
67768;SDS011;54569;52.018;5.584;2022-12-18T14:22:54;17.95;;;11.52;;
67768;SDS011;54569;52.018;5.584;2022-12-18T14:33:14;19.45;;;13.55;;
67768;SDS011;54569;52.018;5.584;2022-12-18T14:35:42;16.05;;;13.68;;
67768;SDS011;54569;52.018;5.584;2022-12-18T14:40:53;15.50;;;9.90;;
67768;SDS011;54569;52.018;5.584;2022-12-18T14:43:25;18.30;;;13.88;;
67768;SDS011;54569;52.018;5.584;2022-12-18T14:45:51;17.52;;;10.63;;
67768;SDS011;54569;52.018;5.584;2022-12-18T14:51:01;14.43;;;10.55;;
67768;SDS011;54569;52.018;5.584;2022-12-18T14:53:33;18.42;;;11.05;;
67768;SDS011;54569;52.018;5.584;2022-12-18T14:56:02;18.55;;;13.70;;
67768;SDS011;54569;52.018;5.584;2022-12-18T14:58:29;22.33;;;14.25;;
67768;SDS011;54569;52.018;5.584;2022-12-18T15:00:55;20.38;;;11.57;;
67768;SDS011;54569;52.018;5.584;2022-12-18T15:03:21;19.27;;;12.80;;
67768;SDS011;54569;52.018;5.584;2022-12-18T15:05:47;20.33;;;10.93;;
67768;SDS011;54569;52.018;5.584;2022-12-18T15:11:02;17.23;;;10.85;;
67768;SDS011;54569;52.018;5.584;2022-12-18T15:13:28;20.88;;;10.88;;
67768;SDS011;54569;52.018;5.584;2022-12-18T15:15:55;17.23;;;10.32;;
67768;SDS011;54569;52.018;5.584;2022-12-18T15:18:27;18.02;;;12.25;;
67768;SDS011;54569;52.018;5.584;2022-12-18T15:20:57;20.50;;;12.00;;
67768;SDS011;54569;52.018;5.584;2022-12-18T15:23:47;15.70;;;9.88;;
67768;SDS011;54569;52.018;5.584;2022-12-18T15:26:14;16.70;;;11.07;;
67768;SDS011;54569;52.018;5.584;2022-12-18T15:28:45;19.70;;;14.77;;
67768;SDS011;54569;52.018;5.584;2022-12-18T15:31:30;23.90;;;16.50;;
67768;SDS011;54569;52.018;5.584;2022-12-18T15:34:14;16.40;;;10.90;;
67768;SDS011;54569;52.018;5.584;2022-12-18T15:36:45;15.88;;;10.45;;
67768;SDS011;54569;52.018;5.584;2022-12-18T15:39:12;18.33;;;10.77;;
67768;SDS011;54569;52.018;5.584;2022-12-18T15:41:38;15.93;;;10.48;;
67768;SDS011;54569;52.018;5.584;2022-12-18T15:44:20;18.85;;;11.15;;
67768;SDS011;54569;52.018;5.584;2022-12-18T15:46:48;18.95;;;11.40;;
67768;SDS011;54569;52.018;5.584;2022-12-18T15:49:13;18.38;;;10.45;;
67768;SDS011;54569;52.018;5.584;2022-12-18T15:51:39;18.95;;;11.98;;
67768;SDS011;54569;52.018;5.584;2022-12-18T15:54:05;24.50;;;17.60;;
67768;SDS011;54569;52.018;5.584;2022-12-18T15:56:34;34.20;;;30.55;;
67768;SDS011;54569;52.018;5.584;2022-12-18T15:59:19;23.97;;;14.17;;
67768;SDS011;54569;52.018;5.584;2022-12-18T16:01:46;22.42;;;11.32;;
67768;SDS011;54569;52.018;5.584;2022-12-18T16:04:14;19.48;;;11.10;;
67768;SDS011;54569;52.018;5.584;2022-12-18T16:06:41;24.98;;;13.38;;
67768;SDS011;54569;52.018;5.584;2022-12-18T16:09:08;20.77;;;11.57;;
67768;SDS011;54569;52.018;5.584;2022-12-18T16:11:34;23.40;;;15.52;;
67768;SDS011;54569;52.018;5.584;2022-12-18T16:16:54;22.77;;;13.95;;
67768;SDS011;54569;52.018;5.584;2022-12-18T16:19:21;24.40;;;15.93;;
67768;SDS011;54569;52.018;5.584;2022-12-18T16:21:47;26.75;;;16.98;;
67768;SDS011;54569;52.018;5.584;2022-12-18T16:24:15;21.20;;;15.27;;
67768;SDS011;54569;52.018;5.584;2022-12-18T16:29:16;19.48;;;15.13;;
67768;SDS011;54569;52.018;5.584;2022-12-18T16:31:43;20.30;;;13.48;;
67768;SDS011;54569;52.018;5.584;2022-12-18T16:34:10;21.60;;;14.13;;
67768;SDS011;54569;52.018;5.584;2022-12-18T16:36:51;23.52;;;13.90;;
67768;SDS011;54569;52.018;5.584;2022-12-18T16:39:18;18.83;;;12.25;;
67768;SDS011;54569;52.018;5.584;2022-12-18T16:41:45;26.00;;;18.67;;
67768;SDS011;54569;52.018;5.584;2022-12-18T16:44:11;19.83;;;12.10;;
67768;SDS011;54569;52.018;5.584;2022-12-18T16:46:37;23.58;;;14.07;;
67768;SDS011;54569;52.018;5.584;2022-12-18T16:49:04;25.58;;;17.40;;
67768;SDS011;54569;52.018;5.584;2022-12-18T16:51:30;33.42;;;26.00;;
67768;SDS011;54569;52.018;5.584;2022-12-18T16:53:58;26.13;;;16.80;;